sensor_id;sensor_type;location;lat;lon;timestamp;temperature;humidity
27619;DHT22;15039;50.830;4.730;2022-11-18T00:01:22;9.90;99.90
27619;DHT22;15039;50.830;4.730;2022-11-18T00:03:48;10.00;99.90
27619;DHT22;15039;50.830;4.730;2022-11-18T00:06:20;10.00;99.90
27619;DHT22;15039;50.830;4.730;2022-11-18T00:08:46;10.00;99.90
27619;DHT22;15039;50.830;4.730;2022-11-18T00:11:14;9.90;99.90
27619;DHT22;15039;50.830;4.730;2022-11-18T00:14:12;9.90;99.90
27619;DHT22;15039;50.830;4.730;2022-11-18T00:19:16;9.90;99.90
27619;DHT22;15039;50.830;4.730;2022-11-18T00:21:42;9.90;99.90
27619;DHT22;15039;50.830;4.730;2022-11-18T00:24:08;9.90;99.90
27619;DHT22;15039;50.830;4.730;2022-11-18T00:26:34;9.90;99.90
27619;DHT22;15039;50.830;4.730;2022-11-18T00:29:00;9.80;99.90
27619;DHT22;15039;50.830;4.730;2022-11-18T00:31:27;10.00;99.90
27619;DHT22;15039;50.830;4.730;2022-11-18T00:33:53;10.00;99.90
27619;DHT22;15039;50.830;4.730;2022-11-18T00:36:18;10.10;99.90
27619;DHT22;15039;50.830;4.730;2022-11-18T00:38:44;10.10;99.90
27619;DHT22;15039;50.830;4.730;2022-11-18T00:41:11;10.10;99.90
27619;DHT22;15039;50.830;4.730;2022-11-18T00:43:38;10.10;99.90
27619;DHT22;15039;50.830;4.730;2022-11-18T00:46:06;10.10;99.90
27619;DHT22;15039;50.830;4.730;2022-11-18T00:48:32;10.10;99.90
27619;DHT22;15039;50.830;4.730;2022-11-18T00:51:05;10.10;99.90
27619;DHT22;15039;50.830;4.730;2022-11-18T00:53:31;10.10;99.90
27619;DHT22;15039;50.830;4.730;2022-11-18T00:55:57;10.10;99.90
27619;DHT22;15039;50.830;4.730;2022-11-18T00:58:22;10.10;99.90
27619;DHT22;15039;50.830;4.730;2022-11-18T01:00:51;10.10;99.90
27619;DHT22;15039;50.830;4.730;2022-11-18T01:03:18;10.20;99.90
27619;DHT22;15039;50.830;4.730;2022-11-18T01:05:44;10.10;99.90
27619;DHT22;15039;50.830;4.730;2022-11-18T01:08:11;10.30;99.90
27619;DHT22;15039;50.830;4.730;2022-11-18T01:10:37;10.10;99.90
27619;DHT22;15039;50.830;4.730;2022-11-18T01:13:04;10.10;99.90
27619;DHT22;15039;50.830;4.730;2022-11-18T01:15:51;10.20;99.90
27619;DHT22;15039;50.830;4.730;2022-11-18T01:18:18;10.30;99.90
27619;DHT22;15039;50.830;4.730;2022-11-18T01:20:45;10.30;99.90
27619;DHT22;15039;50.830;4.730;2022-11-18T01:23:11;10.20;99.90
27619;DHT22;15039;50.830;4.730;2022-11-18T01:25:38;10.20;99.90
27619;DHT22;15039;50.830;4.730;2022-11-18T01:28:04;10.20;99.90
27619;DHT22;15039;50.830;4.730;2022-11-18T01:30:33;10.20;99.90
27619;DHT22;15039;50.830;4.730;2022-11-18T01:32:59;10.20;99.90
27619;DHT22;15039;50.830;4.730;2022-11-18T01:35:24;10.20;99.90
27619;DHT22;15039;50.830;4.730;2022-11-18T01:37:50;10.10;99.90
27619;DHT22;15039;50.830;4.730;2022-11-18T01:40:16;10.20;99.90
27619;DHT22;15039;50.830;4.730;2022-11-18T01:42:41;10.20;99.90
27619;DHT22;15039;50.830;4.730;2022-11-18T01:45:27;10.20;99.90
27619;DHT22;15039;50.830;4.730;2022-11-18T01:50:31;10.30;99.90
27619;DHT22;15039;50.830;4.730;2022-11-18T01:53:04;10.40;99.90
27619;DHT22;15039;50.830;4.730;2022-11-18T01:55:34;10.20;99.90
27619;DHT22;15039;50.830;4.730;2022-11-18T01:58:06;10.20;99.90
27619;DHT22;15039;50.830;4.730;2022-11-18T02:00:34;10.20;99.90
27619;DHT22;15039;50.830;4.730;2022-11-18T02:03:01;10.10;99.90
27619;DHT22;15039;50.830;4.730;2022-11-18T02:05:28;10.10;99.90
27619;DHT22;15039;50.830;4.730;2022-11-18T02:07:54;10.00;99.90
27619;DHT22;15039;50.830;4.730;2022-11-18T02:10:22;10.00;99.90
27619;DHT22;15039;50.830;4.730;2022-11-18T02:12:49;10.00;99.90
27619;DHT22;15039;50.830;4.730;2022-11-18T02:15:16;9.80;99.90
27619;DHT22;15039;50.830;4.730;2022-11-18T02:20:27;9.70;99.90
27619;DHT22;15039;50.830;4.730;2022-11-18T02:30:59;9.70;99.90
27619;DHT22;15039;50.830;4.730;2022-11-18T02:33:37;9.70;99.90
27619;DHT22;15039;50.830;4.730;2022-11-18T02:36:26;9.70;99.90
27619;DHT22;15039;50.830;4.730;2022-11-18T02:39:00;9.60;99.90
27619;DHT22;15039;50.830;4.730;2022-11-18T02:41:30;9.60;99.90
27619;DHT22;15039;50.830;4.730;2022-11-18T02:44:08;9.50;99.90
27619;DHT22;15039;50.830;4.730;2022-11-18T02:46:38;9.50;99.90
27619;DHT22;15039;50.830;4.730;2022-11-18T02:49:09;9.50;99.90
27619;DHT22;15039;50.830;4.730;2022-11-18T02:51:37;9.50;99.90
27619;DHT22;15039;50.830;4.730;2022-11-18T02:54:06;9.40;99.90
27619;DHT22;15039;50.830;4.730;2022-11-18T02:56:34;9.40;99.90
27619;DHT22;15039;50.830;4.730;2022-11-18T02:59:00;9.40;99.90
27619;DHT22;15039;50.830;4.730;2022-11-18T03:01:28;9.40;99.90
27619;DHT22;15039;50.830;4.730;2022-11-18T03:03:55;9.40;99.90
27619;DHT22;15039;50.830;4.730;2022-11-18T03:22:30;8.90;99.90
27619;DHT22;15039;50.830;4.730;2022-11-18T03:25:16;9.00;99.90
27619;DHT22;15039;50.830;4.730;2022-11-18T03:30:20;8.90;99.90
27619;DHT22;15039;50.830;4.730;2022-11-18T03:33:05;8.90;99.90
27619;DHT22;15039;50.830;4.730;2022-11-18T03:35:37;8.80;99.90
27619;DHT22;15039;50.830;4.730;2022-11-18T03:38:10;8.80;99.90
27619;DHT22;15039;50.830;4.730;2022-11-18T03:40:40;8.80;99.90
27619;DHT22;15039;50.830;4.730;2022-11-18T03:43:11;8.70;99.90
27619;DHT22;15039;50.830;4.730;2022-11-18T03:45:46;8.60;99.90
27619;DHT22;15039;50.830;4.730;2022-11-18T03:48:16;8.60;99.90
27619;DHT22;15039;50.830;4.730;2022-11-18T03:51:00;8.50;99.90
27619;DHT22;15039;50.830;4.730;2022-11-18T03:53:29;8.50;99.90
27619;DHT22;15039;50.830;4.730;2022-11-18T03:56:02;8.40;99.90
27619;DHT22;15039;50.830;4.730;2022-11-18T03:58:35;8.50;99.90
27619;DHT22;15039;50.830;4.730;2022-11-18T04:01:14;8.60;99.90
27619;DHT22;15039;50.830;4.730;2022-11-18T04:03:41;8.60;99.90
27619;DHT22;15039;50.830;4.730;2022-11-18T04:08:51;8.50;99.90
27619;DHT22;15039;50.830;4.730;2022-11-18T04:11:23;8.50;99.90
27619;DHT22;15039;50.830;4.730;2022-11-18T04:14:10;8.50;99.90
27619;DHT22;15039;50.830;4.730;2022-11-18T04:16:44;8.50;99.90
27619;DHT22;15039;50.830;4.730;2022-11-18T04:19:10;8.60;99.90
27619;DHT22;15039;50.830;4.730;2022-11-18T04:21:36;8.60;99.90
27619;DHT22;15039;50.830;4.730;2022-11-18T04:24:02;8.60;99.90
27619;DHT22;15039;50.830;4.730;2022-11-18T04:26:27;8.50;99.90
27619;DHT22;15039;50.830;4.730;2022-11-18T04:28:53;8.70;99.90
27619;DHT22;15039;50.830;4.730;2022-11-18T04:31:19;8.70;99.90
27619;DHT22;15039;50.830;4.730;2022-11-18T04:33:44;8.70;99.90
27619;DHT22;15039;50.830;4.730;2022-11-18T04:36:10;8.50;99.90
27619;DHT22;15039;50.830;4.730;2022-11-18T04:38:35;8.50;99.90
27619;DHT22;15039;50.830;4.730;2022-11-18T04:41:01;8.50;99.90
27619;DHT22;15039;50.830;4.730;2022-11-18T04:43:26;8.50;99.90
27619;DHT22;15039;50.830;4.730;2022-11-18T04:45:52;8.50;99.90
27619;DHT22;15039;50.830;4.730;2022-11-18T04:48:17;8.40;99.90
27619;DHT22;15039;50.830;4.730;2022-11-18T04:50:44;8.40;99.90
27619;DHT22;15039;50.830;4.730;2022-11-18T04:53:09;8.40;99.90
27619;DHT22;15039;50.830;4.730;2022-11-18T04:55:35;8.40;99.90
27619;DHT22;15039;50.830;4.730;2022-11-18T04:58:01;8.30;99.90
27619;DHT22;15039;50.830;4.730;2022-11-18T05:00:27;8.40;99.90
27619;DHT22;15039;50.830;4.730;2022-11-18T05:02:53;8.40;99.90
27619;DHT22;15039;50.830;4.730;2022-11-18T05:05:18;8.40;99.90
27619;DHT22;15039;50.830;4.730;2022-11-18T05:07:44;8.40;99.90
27619;DHT22;15039;50.830;4.730;2022-11-18T05:10:09;8.40;99.90
27619;DHT22;15039;50.830;4.730;2022-11-18T05:12:35;8.50;99.90
27619;DHT22;15039;50.830;4.730;2022-11-18T05:15:16;8.40;99.90
27619;DHT22;15039;50.830;4.730;2022-11-18T05:17:42;8.30;99.90
27619;DHT22;15039;50.830;4.730;2022-11-18T05:20:08;8.20;99.90
27619;DHT22;15039;50.830;4.730;2022-11-18T05:22:34;8.10;99.90
27619;DHT22;15039;50.830;4.730;2022-11-18T05:24:59;8.20;99.90
27619;DHT22;15039;50.830;4.730;2022-11-18T05:27:25;8.10;99.90
27619;DHT22;15039;50.830;4.730;2022-11-18T05:29:51;8.10;99.90
27619;DHT22;15039;50.830;4.730;2022-11-18T05:32:17;8.00;99.90
27619;DHT22;15039;50.830;4.730;2022-11-18T05:34:42;8.00;99.90
27619;DHT22;15039;50.830;4.730;2022-11-18T05:37:08;8.00;99.90
27619;DHT22;15039;50.830;4.730;2022-11-18T05:39:34;7.90;99.90
27619;DHT22;15039;50.830;4.730;2022-11-18T05:42:00;8.00;99.90
27619;DHT22;15039;50.830;4.730;2022-11-18T05:44:44;8.00;99.90
27619;DHT22;15039;50.830;4.730;2022-11-18T05:47:10;8.10;99.90
27619;DHT22;15039;50.830;4.730;2022-11-18T05:49:36;8.20;99.90
27619;DHT22;15039;50.830;4.730;2022-11-18T05:52:02;8.10;99.90
27619;DHT22;15039;50.830;4.730;2022-11-18T05:54:27;8.00;99.90
27619;DHT22;15039;50.830;4.730;2022-11-18T05:56:53;8.00;99.90
27619;DHT22;15039;50.830;4.730;2022-11-18T05:59:19;8.10;99.90
27619;DHT22;15039;50.830;4.730;2022-11-18T06:01:58;7.90;99.90
27619;DHT22;15039;50.830;4.730;2022-11-18T06:04:33;7.90;99.90
27619;DHT22;15039;50.830;4.730;2022-11-18T06:07:14;8.00;99.90
27619;DHT22;15039;50.830;4.730;2022-11-18T06:09:44;8.00;99.90
27619;DHT22;15039;50.830;4.730;2022-11-18T06:12:14;8.00;99.90
27619;DHT22;15039;50.830;4.730;2022-11-18T06:14:48;8.00;99.90
27619;DHT22;15039;50.830;4.730;2022-11-18T06:17:23;8.00;99.90
27619;DHT22;15039;50.830;4.730;2022-11-18T06:19:50;7.90;99.90
27619;DHT22;15039;50.830;4.730;2022-11-18T06:22:16;7.90;99.90
27619;DHT22;15039;50.830;4.730;2022-11-18T06:24:42;8.00;99.90
27619;DHT22;15039;50.830;4.730;2022-11-18T06:27:08;7.90;99.90
27619;DHT22;15039;50.830;4.730;2022-11-18T06:29:34;7.90;99.90
27619;DHT22;15039;50.830;4.730;2022-11-18T06:32:00;7.90;99.90
27619;DHT22;15039;50.830;4.730;2022-11-18T06:34:26;7.90;99.90
27619;DHT22;15039;50.830;4.730;2022-11-18T06:36:51;7.90;99.90
27619;DHT22;15039;50.830;4.730;2022-11-18T06:39:17;7.80;99.90
27619;DHT22;15039;50.830;4.730;2022-11-18T06:41:42;7.80;99.90
27619;DHT22;15039;50.830;4.730;2022-11-18T06:44:10;7.80;99.90
27619;DHT22;15039;50.830;4.730;2022-11-18T06:46:36;7.80;99.90
27619;DHT22;15039;50.830;4.730;2022-11-18T06:49:20;7.80;99.90
27619;DHT22;15039;50.830;4.730;2022-11-18T06:51:45;7.80;99.90
27619;DHT22;15039;50.830;4.730;2022-11-18T06:54:11;7.80;99.90
27619;DHT22;15039;50.830;4.730;2022-11-18T06:56:37;7.80;99.90
27619;DHT22;15039;50.830;4.730;2022-11-18T06:59:03;7.80;99.90
27619;DHT22;15039;50.830;4.730;2022-11-18T07:01:31;7.80;99.90
27619;DHT22;15039;50.830;4.730;2022-11-18T07:04:01;7.80;99.90
27619;DHT22;15039;50.830;4.730;2022-11-18T07:06:29;7.90;99.90
27619;DHT22;15039;50.830;4.730;2022-11-18T07:08:55;7.80;99.90
27619;DHT22;15039;50.830;4.730;2022-11-18T07:11:23;7.80;99.90
27619;DHT22;15039;50.830;4.730;2022-11-18T07:13:49;7.80;99.90
27619;DHT22;15039;50.830;4.730;2022-11-18T07:16:17;7.80;99.90
27619;DHT22;15039;50.830;4.730;2022-11-18T07:18:44;7.80;99.90
27619;DHT22;15039;50.830;4.730;2022-11-18T07:21:19;7.80;99.90
27619;DHT22;15039;50.830;4.730;2022-11-18T07:23:45;7.90;99.90
27619;DHT22;15039;50.830;4.730;2022-11-18T07:26:12;7.90;99.90
27619;DHT22;15039;50.830;4.730;2022-11-18T07:28:38;8.00;99.90
27619;DHT22;15039;50.830;4.730;2022-11-18T07:31:07;8.10;99.90
27619;DHT22;15039;50.830;4.730;2022-11-18T07:33:33;8.00;99.90
27619;DHT22;15039;50.830;4.730;2022-11-18T07:36:05;8.10;99.90
27619;DHT22;15039;50.830;4.730;2022-11-18T07:38:31;8.20;99.90
27619;DHT22;15039;50.830;4.730;2022-11-18T07:41:08;8.30;99.90
27619;DHT22;15039;50.830;4.730;2022-11-18T07:43:35;8.40;99.90
27619;DHT22;15039;50.830;4.730;2022-11-18T07:48:34;8.40;99.90
27619;DHT22;15039;50.830;4.730;2022-11-18T07:51:00;8.40;99.90
27619;DHT22;15039;50.830;4.730;2022-11-18T07:53:29;8.50;99.90
27619;DHT22;15039;50.830;4.730;2022-11-18T07:55:54;8.60;99.90
27619;DHT22;15039;50.830;4.730;2022-11-18T07:58:20;8.70;99.90
27619;DHT22;15039;50.830;4.730;2022-11-18T08:00:46;8.80;99.90
27619;DHT22;15039;50.830;4.730;2022-11-18T08:03:11;8.90;99.90
27619;DHT22;15039;50.830;4.730;2022-11-18T08:05:37;8.90;99.90
27619;DHT22;15039;50.830;4.730;2022-11-18T08:08:02;9.00;99.90
27619;DHT22;15039;50.830;4.730;2022-11-18T08:10:28;9.00;99.90
27619;DHT22;15039;50.830;4.730;2022-11-18T08:12:55;9.00;99.90
27619;DHT22;15039;50.830;4.730;2022-11-18T08:15:21;9.00;99.90
27619;DHT22;15039;50.830;4.730;2022-11-18T08:17:47;9.00;99.90
27619;DHT22;15039;50.830;4.730;2022-11-18T08:20:13;9.10;99.90
27619;DHT22;15039;50.830;4.730;2022-11-18T08:22:39;9.00;99.90
27619;DHT22;15039;50.830;4.730;2022-11-18T08:25:05;9.10;99.90
27619;DHT22;15039;50.830;4.730;2022-11-18T08:27:31;9.10;99.90
27619;DHT22;15039;50.830;4.730;2022-11-18T08:29:57;9.20;99.90
27619;DHT22;15039;50.830;4.730;2022-11-18T08:32:22;9.30;99.90
27619;DHT22;15039;50.830;4.730;2022-11-18T08:34:49;9.30;99.90
27619;DHT22;15039;50.830;4.730;2022-11-18T08:37:15;9.30;99.90
27619;DHT22;15039;50.830;4.730;2022-11-18T08:39:40;9.20;99.90
27619;DHT22;15039;50.830;4.730;2022-11-18T08:42:06;9.30;99.90
27619;DHT22;15039;50.830;4.730;2022-11-18T08:44:32;9.30;99.90
27619;DHT22;15039;50.830;4.730;2022-11-18T08:46:57;9.40;99.90
27619;DHT22;15039;50.830;4.730;2022-11-18T08:49:23;9.40;99.90
27619;DHT22;15039;50.830;4.730;2022-11-18T08:51:48;9.50;99.90
27619;DHT22;15039;50.830;4.730;2022-11-18T08:54:14;9.60;99.90
27619;DHT22;15039;50.830;4.730;2022-11-18T08:56:40;9.70;99.90
27619;DHT22;15039;50.830;4.730;2022-11-18T08:59:06;9.70;99.90
27619;DHT22;15039;50.830;4.730;2022-11-18T09:01:32;9.60;99.90
27619;DHT22;15039;50.830;4.730;2022-11-18T09:03:58;9.70;99.90
27619;DHT22;15039;50.830;4.730;2022-11-18T09:06:24;9.70;99.90
27619;DHT22;15039;50.830;4.730;2022-11-18T09:08:53;9.70;99.90
27619;DHT22;15039;50.830;4.730;2022-11-18T09:11:20;9.80;99.90
27619;DHT22;15039;50.830;4.730;2022-11-18T09:13:47;9.80;99.90
27619;DHT22;15039;50.830;4.730;2022-11-18T09:16:16;9.90;99.90
27619;DHT22;15039;50.830;4.730;2022-11-18T09:18:41;10.00;99.90
27619;DHT22;15039;50.830;4.730;2022-11-18T09:21:08;10.00;99.90
27619;DHT22;15039;50.830;4.730;2022-11-18T09:23:36;9.90;99.90
27619;DHT22;15039;50.830;4.730;2022-11-18T09:26:07;10.00;99.90
27619;DHT22;15039;50.830;4.730;2022-11-18T09:28:34;10.00;99.90
27619;DHT22;15039;50.830;4.730;2022-11-18T09:31:11;10.00;99.90
27619;DHT22;15039;50.830;4.730;2022-11-18T09:33:38;10.20;99.90
27619;DHT22;15039;50.830;4.730;2022-11-18T09:36:05;10.20;99.90
27619;DHT22;15039;50.830;4.730;2022-11-18T09:38:35;10.20;99.90
27619;DHT22;15039;50.830;4.730;2022-11-18T09:44:40;10.30;99.90
27619;DHT22;15039;50.830;4.730;2022-11-18T09:49:49;10.60;99.90
27619;DHT22;15039;50.830;4.730;2022-11-18T09:52:23;10.60;99.90
27619;DHT22;15039;50.830;4.730;2022-11-18T09:54:50;10.60;99.90
27619;DHT22;15039;50.830;4.730;2022-11-18T09:57:19;10.50;99.90
27619;DHT22;15039;50.830;4.730;2022-11-18T09:59:46;10.50;99.90
27619;DHT22;15039;50.830;4.730;2022-11-18T10:05:13;10.60;99.90
27619;DHT22;15039;50.830;4.730;2022-11-18T10:10:44;10.70;99.90
27619;DHT22;15039;50.830;4.730;2022-11-18T10:13:34;10.70;99.90
27619;DHT22;15039;50.830;4.730;2022-11-18T10:21:59;11.00;99.90
27619;DHT22;15039;50.830;4.730;2022-11-18T10:24:37;11.10;99.90
27619;DHT22;15039;50.830;4.730;2022-11-18T10:27:13;11.10;99.90
27619;DHT22;15039;50.830;4.730;2022-11-18T10:29:40;11.20;99.90
27619;DHT22;15039;50.830;4.730;2022-11-18T10:32:15;11.20;99.90
27619;DHT22;15039;50.830;4.730;2022-11-18T10:34:56;11.20;99.90
27619;DHT22;15039;50.830;4.730;2022-11-18T10:37:32;11.30;99.90
27619;DHT22;15039;50.830;4.730;2022-11-18T10:40:00;11.30;99.90
27619;DHT22;15039;50.830;4.730;2022-11-18T10:42:45;11.40;99.90
27619;DHT22;15039;50.830;4.730;2022-11-18T10:52:59;11.60;99.90
27619;DHT22;15039;50.830;4.730;2022-11-18T10:55:28;11.50;99.90
27619;DHT22;15039;50.830;4.730;2022-11-18T10:58:00;11.60;99.90
27619;DHT22;15039;50.830;4.730;2022-11-18T11:00:38;11.60;99.90
27619;DHT22;15039;50.830;4.730;2022-11-18T11:03:31;11.70;99.90
27619;DHT22;15039;50.830;4.730;2022-11-18T11:06:31;11.70;99.90
27619;DHT22;15039;50.830;4.730;2022-11-18T11:09:00;11.70;99.90
27619;DHT22;15039;50.830;4.730;2022-11-18T11:11:30;11.70;99.90
27619;DHT22;15039;50.830;4.730;2022-11-18T11:14:10;11.70;99.90
27619;DHT22;15039;50.830;4.730;2022-11-18T11:16:46;11.70;99.90
27619;DHT22;15039;50.830;4.730;2022-11-18T11:19:16;11.60;99.90
27619;DHT22;15039;50.830;4.730;2022-11-18T11:21:43;11.50;99.90
27619;DHT22;15039;50.830;4.730;2022-11-18T11:24:10;11.60;99.90
27619;DHT22;15039;50.830;4.730;2022-11-18T11:43:34;11.50;99.90
27619;DHT22;15039;50.830;4.730;2022-11-18T11:59:30;11.70;99.90
27619;DHT22;15039;50.830;4.730;2022-11-18T12:04:51;11.90;99.90
27619;DHT22;15039;50.830;4.730;2022-11-18T12:12:38;12.10;99.90
27619;DHT22;15039;50.830;4.730;2022-11-18T12:18:23;12.00;99.90
27619;DHT22;15039;50.830;4.730;2022-11-18T12:20:53;12.00;99.90
27619;DHT22;15039;50.830;4.730;2022-11-18T12:33:43;12.10;99.90
27619;DHT22;15039;50.830;4.730;2022-11-18T12:36:23;12.00;99.90
27619;DHT22;15039;50.830;4.730;2022-11-18T12:38:48;12.10;99.90
27619;DHT22;15039;50.830;4.730;2022-11-18T12:44:26;11.90;99.90
27619;DHT22;15039;50.830;4.730;2022-11-18T12:47:02;12.00;99.90
27619;DHT22;15039;50.830;4.730;2022-11-18T12:51:55;11.90;99.90
27619;DHT22;15039;50.830;4.730;2022-11-18T12:56:49;12.00;99.90
27619;DHT22;15039;50.830;4.730;2022-11-18T12:59:16;12.00;99.90
27619;DHT22;15039;50.830;4.730;2022-11-18T13:02:05;12.10;99.90
27619;DHT22;15039;50.830;4.730;2022-11-18T13:04:31;12.00;99.90
27619;DHT22;15039;50.830;4.730;2022-11-18T13:06:56;12.00;99.90
27619;DHT22;15039;50.830;4.730;2022-11-18T13:09:26;11.90;99.90
27619;DHT22;15039;50.830;4.730;2022-11-18T13:11:59;11.90;99.90
27619;DHT22;15039;50.830;4.730;2022-11-18T13:14:39;11.90;99.90
27619;DHT22;15039;50.830;4.730;2022-11-18T13:17:35;11.90;99.90
27619;DHT22;15039;50.830;4.730;2022-11-18T13:20:36;11.90;99.90
27619;DHT22;15039;50.830;4.730;2022-11-18T13:25:53;12.10;99.90
27619;DHT22;15039;50.830;4.730;2022-11-18T13:28:29;12.10;99.90
27619;DHT22;15039;50.830;4.730;2022-11-18T13:31:15;12.20;99.90
27619;DHT22;15039;50.830;4.730;2022-11-18T13:33:42;12.20;99.90
27619;DHT22;15039;50.830;4.730;2022-11-18T13:36:22;12.10;99.90
27619;DHT22;15039;50.830;4.730;2022-11-18T13:38:58;12.00;99.90
27619;DHT22;15039;50.830;4.730;2022-11-18T13:41:27;12.10;99.90
27619;DHT22;15039;50.830;4.730;2022-11-18T13:44:18;12.10;99.90
27619;DHT22;15039;50.830;4.730;2022-11-18T13:46:50;12.20;99.90
27619;DHT22;15039;50.830;4.730;2022-11-18T13:49:21;12.20;99.90
27619;DHT22;15039;50.830;4.730;2022-11-18T13:51:47;12.10;99.90
27619;DHT22;15039;50.830;4.730;2022-11-18T13:54:19;12.10;99.90
27619;DHT22;15039;50.830;4.730;2022-11-18T13:56:47;12.10;99.90
27619;DHT22;15039;50.830;4.730;2022-11-18T13:59:17;12.10;99.90
27619;DHT22;15039;50.830;4.730;2022-11-18T14:01:43;12.00;99.90
27619;DHT22;15039;50.830;4.730;2022-11-18T14:04:25;11.90;99.90
27619;DHT22;15039;50.830;4.730;2022-11-18T14:06:52;11.90;99.90
27619;DHT22;15039;50.830;4.730;2022-11-18T14:09:26;11.90;99.90
27619;DHT22;15039;50.830;4.730;2022-11-18T14:12:01;12.00;99.90
27619;DHT22;15039;50.830;4.730;2022-11-18T14:14:33;11.90;99.90
27619;DHT22;15039;50.830;4.730;2022-11-18T14:19:32;12.00;99.90
27619;DHT22;15039;50.830;4.730;2022-11-18T14:22:03;12.00;99.90
27619;DHT22;15039;50.830;4.730;2022-11-18T14:24:29;11.90;99.90
27619;DHT22;15039;50.830;4.730;2022-11-18T14:26:55;11.90;99.90
27619;DHT22;15039;50.830;4.730;2022-11-18T14:29:21;11.90;99.90
27619;DHT22;15039;50.830;4.730;2022-11-18T14:32:13;11.70;99.90
27619;DHT22;15039;50.830;4.730;2022-11-18T14:34:39;11.70;99.90
27619;DHT22;15039;50.830;4.730;2022-11-18T14:37:11;11.60;99.90
27619;DHT22;15039;50.830;4.730;2022-11-18T14:39:37;11.60;99.90
27619;DHT22;15039;50.830;4.730;2022-11-18T14:42:04;11.50;99.90
27619;DHT22;15039;50.830;4.730;2022-11-18T14:44:31;11.60;99.90
27619;DHT22;15039;50.830;4.730;2022-11-18T14:46:59;11.60;99.90
27619;DHT22;15039;50.830;4.730;2022-11-18T14:49:26;11.50;99.90
27619;DHT22;15039;50.830;4.730;2022-11-18T14:51:53;11.50;99.90
27619;DHT22;15039;50.830;4.730;2022-11-18T14:54:22;11.60;99.90
27619;DHT22;15039;50.830;4.730;2022-11-18T14:56:49;11.50;99.90
27619;DHT22;15039;50.830;4.730;2022-11-18T14:59:17;11.50;99.90
27619;DHT22;15039;50.830;4.730;2022-11-18T15:01:44;11.50;99.90
27619;DHT22;15039;50.830;4.730;2022-11-18T15:04:10;11.50;99.90
27619;DHT22;15039;50.830;4.730;2022-11-18T15:06:36;11.50;99.90
27619;DHT22;15039;50.830;4.730;2022-11-18T15:09:02;11.50;99.90
27619;DHT22;15039;50.830;4.730;2022-11-18T15:11:28;11.40;99.90
27619;DHT22;15039;50.830;4.730;2022-11-18T15:13:53;11.30;99.90
27619;DHT22;15039;50.830;4.730;2022-11-18T15:16:24;11.30;99.90
27619;DHT22;15039;50.830;4.730;2022-11-18T15:18:52;11.30;99.90
27619;DHT22;15039;50.830;4.730;2022-11-18T15:21:19;11.20;99.90
27619;DHT22;15039;50.830;4.730;2022-11-18T15:23:45;11.10;99.90
27619;DHT22;15039;50.830;4.730;2022-11-18T15:26:34;11.20;99.90
27619;DHT22;15039;50.830;4.730;2022-11-18T15:29:02;11.20;99.90
27619;DHT22;15039;50.830;4.730;2022-11-18T15:31:27;11.30;99.90
27619;DHT22;15039;50.830;4.730;2022-11-18T15:33:53;11.20;99.90
27619;DHT22;15039;50.830;4.730;2022-11-18T15:36:24;11.20;99.90
27619;DHT22;15039;50.830;4.730;2022-11-18T15:38:51;11.30;99.90
27619;DHT22;15039;50.830;4.730;2022-11-18T15:41:28;11.30;99.90
27619;DHT22;15039;50.830;4.730;2022-11-18T15:43:55;11.30;99.90
27619;DHT22;15039;50.830;4.730;2022-11-18T15:46:23;11.20;99.90
27619;DHT22;15039;50.830;4.730;2022-11-18T15:48:56;11.30;99.90
27619;DHT22;15039;50.830;4.730;2022-11-18T15:51:23;11.30;99.90
27619;DHT22;15039;50.830;4.730;2022-11-18T15:53:49;11.30;99.90
27619;DHT22;15039;50.830;4.730;2022-11-18T15:59:02;11.20;99.90
27619;DHT22;15039;50.830;4.730;2022-11-18T16:01:34;11.20;99.90
27619;DHT22;15039;50.830;4.730;2022-11-18T16:04:00;11.10;99.90
27619;DHT22;15039;50.830;4.730;2022-11-18T16:06:26;11.20;99.90
27619;DHT22;15039;50.830;4.730;2022-11-18T16:08:52;11.10;99.90
27619;DHT22;15039;50.830;4.730;2022-11-18T16:11:19;11.00;99.90
27619;DHT22;15039;50.830;4.730;2022-11-18T16:14:05;11.00;99.90
27619;DHT22;15039;50.830;4.730;2022-11-18T16:16:32;11.10;99.90
27619;DHT22;15039;50.830;4.730;2022-11-18T16:19:00;11.00;99.90
27619;DHT22;15039;50.830;4.730;2022-11-18T16:21:27;11.00;99.90
27619;DHT22;15039;50.830;4.730;2022-11-18T16:23:56;11.00;99.90
27619;DHT22;15039;50.830;4.730;2022-11-18T16:26:26;11.10;99.90
27619;DHT22;15039;50.830;4.730;2022-11-18T16:28:52;11.20;99.90
27619;DHT22;15039;50.830;4.730;2022-11-18T16:31:19;11.20;99.90
27619;DHT22;15039;50.830;4.730;2022-11-18T16:36:45;11.10;99.90
27619;DHT22;15039;50.830;4.730;2022-11-18T16:39:13;11.00;99.90
27619;DHT22;15039;50.830;4.730;2022-11-18T16:41:40;11.00;99.90
27619;DHT22;15039;50.830;4.730;2022-11-18T16:44:08;11.00;99.90
27619;DHT22;15039;50.830;4.730;2022-11-18T16:46:36;10.90;99.90
27619;DHT22;15039;50.830;4.730;2022-11-18T16:49:03;11.00;99.90
27619;DHT22;15039;50.830;4.730;2022-11-18T16:51:30;10.90;99.90
27619;DHT22;15039;50.830;4.730;2022-11-18T16:54:04;10.90;99.90
27619;DHT22;15039;50.830;4.730;2022-11-18T16:56:32;10.80;99.90
27619;DHT22;15039;50.830;4.730;2022-11-18T16:59:00;10.80;99.90
27619;DHT22;15039;50.830;4.730;2022-11-18T17:01:27;10.80;99.90
27619;DHT22;15039;50.830;4.730;2022-11-18T17:03:53;10.90;99.90
27619;DHT22;15039;50.830;4.730;2022-11-18T17:06:21;10.90;99.90
27619;DHT22;15039;50.830;4.730;2022-11-18T17:08:47;10.90;99.90
27619;DHT22;15039;50.830;4.730;2022-11-18T17:11:13;11.00;99.90
27619;DHT22;15039;50.830;4.730;2022-11-18T17:13:39;11.00;99.90
27619;DHT22;15039;50.830;4.730;2022-11-18T17:16:11;11.00;99.90
27619;DHT22;15039;50.830;4.730;2022-11-18T17:18:37;10.90;99.90
27619;DHT22;15039;50.830;4.730;2022-11-18T17:21:04;10.90;99.90
27619;DHT22;15039;50.830;4.730;2022-11-18T17:23:30;11.00;99.90
27619;DHT22;15039;50.830;4.730;2022-11-18T17:25:55;10.90;99.90
27619;DHT22;15039;50.830;4.730;2022-11-18T17:28:21;10.80;99.90
27619;DHT22;15039;50.830;4.730;2022-11-18T17:30:47;10.80;99.90
27619;DHT22;15039;50.830;4.730;2022-11-18T17:33:13;10.80;99.90
27619;DHT22;15039;50.830;4.730;2022-11-18T17:35:38;10.80;99.90
27619;DHT22;15039;50.830;4.730;2022-11-18T17:38:04;10.80;99.90
27619;DHT22;15039;50.830;4.730;2022-11-18T17:40:29;10.80;99.90
27619;DHT22;15039;50.830;4.730;2022-11-18T17:42:55;10.90;99.90
27619;DHT22;15039;50.830;4.730;2022-11-18T17:45:21;11.00;99.90
27619;DHT22;15039;50.830;4.730;2022-11-18T17:47:46;10.90;99.90
27619;DHT22;15039;50.830;4.730;2022-11-18T17:50:12;10.90;99.90
27619;DHT22;15039;50.830;4.730;2022-11-18T17:52:38;10.90;99.90
27619;DHT22;15039;50.830;4.730;2022-11-18T17:55:04;11.00;99.90
27619;DHT22;15039;50.830;4.730;2022-11-18T17:57:31;11.10;99.90
27619;DHT22;15039;50.830;4.730;2022-11-18T17:59:56;11.00;99.90
27619;DHT22;15039;50.830;4.730;2022-11-18T18:02:22;10.70;99.90
27619;DHT22;15039;50.830;4.730;2022-11-18T18:04:48;10.40;99.90
27619;DHT22;15039;50.830;4.730;2022-11-18T18:07:13;10.10;99.90